Time;durP1;ratioP1;P1;durP2;ratioP2;P2;SDS_P1;SDS_P2;PMS_P1;PMS_P2;Temp;Humidity;BMP_temperature;BMP_pressure;BME280_temperature;BME280_humidity;BME280_pressure;Samples;Min_cycle;Max_cycle;Signal;HPM_P1;HPM_P2
2022/02/15 00:01:46;;;;;;;41.60;25.20;;;;;;;1.09;73.73;100086.90;88078;1278;96352;-66
2022/02/15 00:03:53;;;;;;;40.60;25.20;;;;;;;1.11;73.63;100085.58;88090;1276;88632;-67
2022/02/15 00:06:01;;;;;;;40.70;25.50;;;;;;;1.16;73.75;100084.59;88110;1276;95624;-67
2022/02/15 00:08:13;;;;;;;38.40;23.60;;;;;;;1.16;73.72;100087.48;88077;1276;75952;-72
2022/02/15 00:10:22;;;;;;;38.80;24.20;;;;;;;1.13;73.73;100090.38;88152;1277;83360;-72
2022/02/15 00:12:30;;;;;;;42.50;24.90;;;;;;;1.12;73.44;100089.61;88094;1277;100523;-73
2022/02/15 00:14:39;;;;;;;38.10;23.70;;;;;;;1.07;73.57;100085.63;88096;1276;86392;-73
2022/02/15 00:16:50;;;;;;;38.80;23.40;;;;;;;1.03;74.12;100084.86;88078;1278;96136;-71
2022/02/15 00:18:59;;;;;;;40.30;22.80;;;;;;;1.03;73.99;100086.48;88077;1277;80598;-73
2022/02/15 00:21:08;;;;;;;39.20;23.60;;;;;;;1.01;74.18;100087.55;88123;1278;81516;-72
2022/02/15 00:23:17;;;;;;;36.60;22.00;;;;;;;1.03;74.13;100084.18;88049;1279;99300;-72
2022/02/15 00:25:26;;;;;;;36.70;22.30;;;;;;;1.06;73.78;100085.48;88083;1276;87553;-72
2022/02/15 00:27:35;;;;;;;40.10;23.20;;;;;;;1.06;73.86;100081.09;88074;1278;93839;-73
2022/02/15 00:29:44;;;;;;;40.60;23.40;;;;;;;1.10;74.03;100078.75;88072;1277;76339;-72
2022/02/15 00:31:50;;;;;;;39.60;23.50;;;;;;;1.16;73.87;100079.44;88098;1276;82800;-72
2022/02/15 00:33:55;;;;;;;38.90;23.10;;;;;;;1.19;73.80;100073.89;88096;1276;96879;-71
2022/02/15 00:36:05;;;;;;;39.10;22.80;;;;;;;1.18;73.73;100071.18;88069;1279;89497;-72
2022/02/15 00:38:11;;;;;;;43.10;24.80;;;;;;;1.15;73.63;100077.61;88075;1278;95673;-67
2022/02/15 00:40:20;;;;;;;38.60;23.20;;;;;;;1.14;73.71;100069.38;88094;1276;76989;-66
2022/02/15 00:42:26;;;;;;;36.40;22.90;;;;;;;1.09;73.70;100074.80;88103;1276;83728;-65
2022/02/15 00:44:31;;;;;;;38.60;24.00;;;;;;;1.03;73.77;100072.31;88122;1276;98553;-65
2022/02/15 00:46:40;;;;;;;42.00;23.60;;;;;;;1.01;74.02;100075.20;88082;1276;88893;-72
2022/02/15 00:48:48;;;;;;;41.30;24.00;;;;;;;0.99;74.01;100069.15;88022;1278;94897;-73
2022/02/15 00:50:53;;;;;;;38.70;22.30;;;;;;;0.96;73.99;100067.82;88083;1276;79502;-73
2022/02/15 00:52:59;;;;;;;39.20;23.50;;;;;;;0.97;74.11;100065.61;88070;1276;79612;-72
2022/02/15 00:55:13;;;;;;;40.80;23.00;;;;;;;0.98;74.02;100066.06;88027;1279;99999;-72
2022/02/15 00:57:18;;;;;;;36.40;22.10;;;;;;;0.98;74.02;100065.65;88114;1276;87951;-66
2022/02/15 00:59:27;;;;;;;39.20;22.90;;;;;;;0.99;73.82;100060.80;88062;1276;95540;-67
2022/02/15 01:01:37;;;;;;;42.60;25.10;;;;;;;1.00;73.92;100061.98;88029;1279;77993;-70
2022/02/15 01:03:45;;;;;;;39.40;25.00;;;;;;;1.00;74.12;100058.91;88104;1276;80855;-71
2022/02/15 01:05:54;;;;;;;40.70;23.80;;;;;;;1.03;74.49;100056.70;88096;1276;98251;-72
2022/02/15 01:08:00;;;;;;;37.50;23.70;;;;;;;1.02;74.10;100051.64;88091;1276;86432;-72
2022/02/15 01:10:10;;;;;;;43.20;25.20;;;;;;;0.99;74.11;100053.52;88100;1276;95804;-73
2022/02/15 01:12:16;;;;;;;40.40;25.10;;;;;;;0.96;74.19;100052.60;88038;1278;80224;-66
2022/02/15 01:14:21;;;;;;;41.40;24.40;;;;;;;0.93;74.22;100053.19;88102;1276;81044;-67
2022/02/15 01:16:27;;;;;;;43.20;25.30;;;;;;;0.89;74.37;100046.95;88064;1276;99078;-68
2022/02/15 01:18:33;;;;;;;37.20;22.70;;;;;;;0.88;74.23;100049.01;88099;1276;90113;-68
2022/02/15 01:20:39;;;;;;;41.30;24.60;;;;;;;0.87;74.73;100043.64;88043;1278;95563;-67
2022/02/15 01:22:44;;;;;;;38.70;22.90;;;;;;;0.89;74.96;100041.50;88092;1276;79836;-67
2022/02/15 01:24:53;;;;;;;39.00;23.10;;;;;;;0.90;74.88;100035.90;88119;1276;80532;-67
2022/02/15 01:26:59;;;;;;;40.50;23.80;;;;;;;0.94;74.97;100032.58;88088;1276;97433;-66
2022/02/15 01:29:07;;;;;;;36.90;22.40;;;;;;;0.97;74.88;100032.30;88108;1276;88205;-67
2022/02/15 01:31:16;;;;;;;39.70;24.60;;;;;;;0.93;75.00;100036.73;88085;1276;94981;-66
2022/02/15 01:33:22;;;;;;;42.10;24.70;;;;;;;0.91;74.70;100037.81;88095;1276;77684;-66
2022/02/15 01:35:27;;;;;;;41.70;25.60;;;;;;;0.87;74.63;100033.32;88102;1276;81938;-66
2022/02/15 01:37:36;;;;;;;40.60;25.10;;;;;;;0.85;74.71;100034.23;88130;1276;99089;-73
2022/02/15 01:39:41;;;;;;;39.80;25.40;;;;;;;0.82;74.75;100032.05;88093;1276;87040;-72
2022/02/15 01:41:48;;;;;;;41.80;24.40;;;;;;;0.78;74.85;100030.84;88015;1279;93345;-65
2022/02/15 01:43:54;;;;;;;42.00;25.50;;;;;;;0.73;74.83;100030.71;88088;1276;78448;-67
2022/02/15 01:46:00;;;;;;;41.40;24.20;;;;;;;0.72;74.86;100030.31;88102;1276;79315;-66
2022/02/15 01:48:10;;;;;;;37.70;23.00;;;;;;;0.71;75.10;100028.58;88099;1276;98971;-70
2022/02/15 01:50:17;;;;;;;41.60;24.10;;;;;;;0.73;75.29;100025.27;88026;1279;87586;-72
2022/02/15 01:52:23;;;;;;;44.10;25.00;;;;;;;0.75;75.44;100024.04;88134;1276;96063;-74
2022/02/15 01:54:32;;;;;;;35.00;24.20;;;;;;;0.76;75.14;100021.27;88088;1276;79637;-72
2022/02/15 01:56:41;;;;;;;43.00;24.40;;;;;;;0.76;75.47;100019.78;88098;1276;81450;-67
2022/02/15 01:58:50;;;;;;;43.90;25.10;;;;;;;0.77;75.30;100013.67;88120;1276;97019;-66
2022/02/15 02:00:58;;;;;;;40.90;25.20;;;;;;;0.75;75.57;100015.80;88127;1276;87810;-66
2022/02/15 02:03:04;;;;;;;37.10;24.60;;;;;;;0.76;75.59;100012.42;88079;1276;94933;-71
2022/02/15 02:07:34;;;;;;;37.80;23.60;;;;;;;0.63;75.14;100009.31;88104;1276;81096;-71
2022/02/15 02:09:41;;;;;;;43.20;25.00;;;;;;;0.59;75.41;100009.41;88070;1276;99548;-72
2022/02/15 02:11:47;;;;;;;42.50;25.40;;;;;;;0.55;75.47;100001.51;88027;1279;87980;-67
2022/02/15 02:13:52;;;;;;;39.20;23.90;;;;;;;0.53;75.76;100004.80;88078;1276;94952;-67
2022/02/15 02:15:59;;;;;;;41.60;24.10;;;;;;;0.53;75.63;100002.20;88040;1278;79485;-68
2022/02/15 02:18:08;;;;;;;39.20;24.40;;;;;;;0.55;75.75;99998.48;88031;1278;83320;-72
2022/02/15 02:20:16;;;;;;;38.70;24.00;;;;;;;0.55;75.58;99998.33;88038;1279;98793;-72
2022/02/15 02:22:22;;;;;;;40.60;24.60;;;;;;;0.55;75.77;99997.06;88088;1277;89090;-67
2022/02/15 02:24:31;;;;;;;39.00;23.10;;;;;;;0.60;75.75;99996.27;88050;1278;95794;-67
2022/02/15 02:26:40;;;;;;;37.90;24.10;;;;;;;0.63;75.60;99999.57;88046;1278;78885;-67
2022/02/15 02:28:48;;;;;;;41.10;24.60;;;;;;;0.58;75.79;99997.33;88049;1279;83206;-68
2022/02/15 02:30:57;;;;;;;45.40;25.30;;;;;;;0.59;76.33;100001.41;88034;1278;99608;-66
2022/02/15 02:33:03;;;;;;;42.60;25.90;;;;;;;0.58;76.25;100005.08;88042;1278;89582;-67
2022/02/15 02:35:12;;;;;;;41.90;24.00;;;;;;;0.56;76.59;99998.21;88029;1279;94616;-67
2022/02/15 02:37:19;;;;;;;42.60;25.70;;;;;;;0.54;76.16;99997.81;88045;1278;79207;-66
2022/02/15 02:39:25;;;;;;;40.00;24.50;;;;;;;0.54;76.43;99996.95;88060;1277;82426;-67
2022/02/15 02:41:31;;;;;;;38.30;24.20;;;;;;;0.55;76.34;99995.82;88058;1278;100477;-67
2022/02/15 02:43:36;;;;;;;38.40;25.10;;;;;;;0.54;76.41;99994.30;88056;1278;88062;-67
2022/02/15 02:45:42;;;;;;;40.50;24.70;;;;;;;0.57;76.79;99994.55;88053;1278;95607;-67
2022/02/15 02:47:51;;;;;;;38.80;23.10;;;;;;;0.61;76.38;99997.41;88040;1279;78686;-67
2022/02/15 02:49:57;;;;;;;48.90;26.40;;;;;;;0.64;76.68;99995.26;88068;1278;79465;-67
2022/02/15 02:52:05;;;;;;;41.40;24.40;;;;;;;0.67;76.51;99989.63;88056;1278;98742;-72
2022/02/15 02:54:15;;;;;;;37.60;24.40;;;;;;;0.67;76.45;99991.08;88054;1278;88887;-71
2022/02/15 02:56:21;;;;;;;38.90;24.10;;;;;;;0.65;76.60;99988.27;88043;1278;93058;-71
2022/02/15 02:58:30;;;;;;;40.50;25.60;;;;;;;0.62;76.41;99987.96;88008;1278;78642;-73
2022/02/15 03:00:36;;;;;;;35.60;23.60;;;;;;;0.56;76.62;99988.84;88026;1279;81697;-72
2022/02/15 03:02:42;;;;;;;40.20;24.20;;;;;;;0.53;76.80;99991.23;88034;1279;100176;-73
2022/02/15 03:04:48;;;;;;;36.10;24.00;;;;;;;0.50;76.56;99990.73;88015;1278;88401;-71
2022/02/15 03:06:57;;;;;;;41.00;25.70;;;;;;;0.48;76.56;99994.49;88089;1279;94973;-74
2022/02/15 03:09:06;;;;;;;39.60;23.40;;;;;;;0.46;76.79;99990.55;88064;1277;77791;-74
2022/02/15 03:11:16;;;;;;;40.40;24.30;;;;;;;0.47;76.96;99988.00;88034;1278;81211;-72
2022/02/15 03:13:25;;;;;;;38.90;23.20;;;;;;;0.51;77.11;99986.94;88058;1278;100063;-73
2022/02/15 03:15:33;;;;;;;36.80;23.70;;;;;;;0.54;77.35;99987.41;88075;1278;87251;-72
2022/02/15 03:17:42;;;;;;;38.90;24.00;;;;;;;0.54;77.54;99987.07;88033;1279;95513;-67
2022/02/15 03:19:51;;;;;;;41.40;24.90;;;;;;;0.58;77.32;99992.00;88050;1278;78260;-67
2022/02/15 03:22:00;;;;;;;37.90;22.90;;;;;;;0.56;77.44;99991.64;88070;1279;80615;-67
2022/02/15 03:24:07;;;;;;;45.40;26.20;;;;;;;0.54;77.40;99991.80;88043;1279;100344;-67
2022/02/15 03:26:14;;;;;;;41.40;24.70;;;;;;;0.54;77.82;99991.97;88067;1277;89649;-67
2022/02/15 03:28:20;;;;;;;41.80;25.80;;;;;;;0.52;77.57;99991.43;88032;1278;95552;-66
2022/02/15 03:30:28;;;;;;;39.70;24.80;;;;;;;0.50;77.65;99992.69;88038;1278;82048;-67
2022/02/15 03:32:38;;;;;;;41.80;25.10;;;;;;;0.46;77.55;99991.61;88088;1279;81191;-68
2022/02/15 03:34:47;;;;;;;42.20;24.90;;;;;;;0.45;78.07;99992.48;88040;1279;100017;-67
2022/02/15 03:36:52;;;;;;;41.90;24.80;;;;;;;0.45;78.05;99993.48;87773;1278;335762;-68
2022/02/15 03:38:58;;;;;;;40.40;24.70;;;;;;;0.48;77.94;99992.59;88017;1279;94192;-68
2022/02/15 03:43:27;;;;;;;41.10;22.90;;;;;;;0.50;78.32;99993.58;88049;1278;80637;-72
2022/02/15 03:45:33;;;;;;;40.90;24.50;;;;;;;0.50;78.32;99988.85;88025;1278;100280;-73
2022/02/15 03:47:40;;;;;;;41.10;24.50;;;;;;;0.52;78.19;99991.27;88058;1279;87432;-67
2022/02/15 03:49:46;;;;;;;44.50;26.30;;;;;;;0.52;77.96;99989.17;88084;1278;93462;-67
2022/02/15 03:51:51;;;;;;;42.40;25.20;;;;;;;0.50;78.12;99990.26;88023;1278;77707;-70
2022/02/15 03:54:00;;;;;;;44.10;27.10;;;;;;;0.48;78.06;99990.08;88066;1277;83375;-71
2022/02/15 03:56:09;;;;;;;39.70;25.90;;;;;;;0.46;78.44;99986.66;88050;1279;100305;-72
2022/02/15 03:58:15;;;;;;;43.30;24.50;;;;;;;0.43;78.28;99990.51;88086;1279;87844;-71
2022/02/15 04:00:21;;;;;;;45.40;28.10;;;;;;;0.39;78.66;99989.14;88070;1279;92624;-72
2022/02/15 04:02:27;;;;;;;44.50;25.90;;;;;;;0.38;78.58;99989.40;88039;1279;79136;-66
2022/02/15 04:04:33;;;;;;;44.10;27.00;;;;;;;0.33;78.54;99993.52;88036;1278;82472;-66
2022/02/15 04:06:38;;;;;;;40.70;24.70;;;;;;;0.33;78.90;99991.77;88049;1278;99911;-73
2022/02/15 04:08:44;;;;;;;41.90;26.30;;;;;;;0.36;78.61;99992.69;88023;1279;89002;-72
2022/02/15 04:10:50;;;;;;;40.80;25.80;;;;;;;0.36;78.55;99995.55;88040;1278;94232;-73
2022/02/15 04:12:56;;;;;;;38.10;23.10;;;;;;;0.38;78.83;99990.42;88037;1279;79397;-67
2022/02/15 04:15:06;;;;;;;43.30;24.80;;;;;;;0.40;79.18;99991.34;88033;1278;81101;-65
2022/02/15 04:17:12;;;;;;;41.20;25.90;;;;;;;0.41;78.92;99989.94;88049;1279;97716;-65
2022/02/15 04:19:20;;;;;;;40.30;25.30;;;;;;;0.42;79.12;99990.44;88043;1279;88412;-65
2022/02/15 04:21:26;;;;;;;42.50;26.60;;;;;;;0.39;78.92;99990.00;88039;1279;95654;-65
2022/02/15 04:23:34;;;;;;;44.00;25.50;;;;;;;0.37;78.97;99990.55;88051;1278;77234;-65
2022/02/15 04:25:40;;;;;;;39.70;25.00;;;;;;;0.34;79.28;99988.32;88017;1279;82596;-65
2022/02/15 04:27:46;;;;;;;44.70;26.20;;;;;;;0.31;79.17;99989.33;88084;1278;100002;-65
2022/02/15 04:29:55;;;;;;;50.50;27.70;;;;;;;0.26;78.99;99989.34;88002;1281;89250;-66
2022/02/15 04:32:00;;;;;;;44.80;26.00;;;;;;;0.25;79.02;99990.20;88049;1278;95142;-71
2022/02/15 04:34:06;;;;;;;42.30;25.20;;;;;;;0.24;79.15;99987.59;88017;1279;79262;-71
2022/02/15 04:36:12;;;;;;;40.20;24.90;;;;;;;0.23;78.95;99990.02;88047;1279;81039;-71
2022/02/15 04:38:18;;;;;;;41.50;25.70;;;;;;;0.26;79.33;99985.67;88035;1279;99927;-64
2022/02/15 04:40:23;;;;;;;39.50;24.80;;;;;;;0.28;79.34;99989.00;88069;1278;87927;-65
2022/02/15 04:42:29;;;;;;;42.60;25.40;;;;;;;0.32;79.68;99987.63;88049;1278;95911;-66
2022/02/15 04:44:35;;;;;;;47.20;25.70;;;;;;;0.33;79.63;99991.60;88060;1278;77463;-65
2022/02/15 04:46:40;;;;;;;41.20;25.90;;;;;;;0.32;79.67;99989.93;88070;1278;82224;-72
2022/02/15 04:48:49;;;;;;;41.60;25.80;;;;;;;0.29;79.52;99987.30;88015;1278;98710;-72
2022/02/15 04:50:58;;;;;;;44.60;26.00;;;;;;;0.27;79.50;99988.55;88067;1278;87969;-74
2022/02/15 04:53:07;;;;;;;44.20;26.10;;;;;;;0.24;79.63;99990.61;88005;1277;95429;-73
2022/02/15 04:55:16;;;;;;;43.60;25.20;;;;;;;0.20;79.75;99993.45;88021;1278;79594;-73
2022/02/15 04:57:22;;;;;;;42.40;24.60;;;;;;;0.18;79.68;99996.09;88069;1278;81260;-72
2022/02/15 04:59:27;;;;;;;42.00;25.20;;;;;;;0.15;80.09;99997.08;88031;1278;99229;-74
2022/02/15 05:01:33;;;;;;;45.00;26.80;;;;;;;0.13;79.98;99996.15;88038;1279;87619;-67
2022/02/15 05:03:42;;;;;;;44.40;25.60;;;;;;;0.18;80.53;99998.75;88053;1277;94106;-65
2022/02/15 05:05:48;;;;;;;44.90;25.90;;;;;;;0.19;80.22;99998.88;88015;1278;82296;-66
2022/02/15 05:07:57;;;;;;;40.10;24.40;;;;;;;0.21;80.03;100001.46;88092;1278;80132;-74
2022/02/15 05:10:04;;;;;;;45.20;26.40;;;;;;;0.23;80.42;99997.81;88046;1278;98179;-73
2022/02/15 05:12:10;;;;;;;44.00;25.40;;;;;;;0.28;80.47;99999.30;88074;1278;88903;-72
2022/02/15 05:14:19;;;;;;;42.90;26.20;;;;;;;0.33;80.50;99995.88;88060;1278;95685;-74
2022/02/15 05:16:25;;;;;;;43.80;27.40;;;;;;;0.32;80.45;99997.73;88032;1278;78037;-72
2022/02/15 05:18:34;;;;;;;43.40;26.40;;;;;;;0.27;80.31;99991.77;88035;1279;80385;-74
2022/02/15 05:20:42;;;;;;;45.80;25.90;;;;;;;0.24;80.28;99992.92;88061;1278;98986;-71
2022/02/15 05:22:50;;;;;;;48.40;26.30;;;;;;;0.21;79.89;99992.10;88051;1278;87687;-74
2022/02/15 05:24:59;;;;;;;43.70;25.60;;;;;;;0.22;80.53;99992.42;88062;1278;95506;-74
2022/02/15 05:27:06;;;;;;;43.10;24.90;;;;;;;0.21;80.78;99994.80;88024;1277;79452;-65
2022/02/15 05:29:15;;;;;;;42.10;25.40;;;;;;;0.22;80.50;99996.14;88063;1279;83560;-65
2022/02/15 05:31:20;;;;;;;43.20;25.10;;;;;;;0.22;80.74;99996.61;88074;1281;97904;-71
2022/02/15 05:33:27;;;;;;;46.10;25.20;;;;;;;0.19;80.48;99993.33;88042;1278;88904;-73
2022/02/15 05:35:32;;;;;;;42.80;24.80;;;;;;;0.18;80.18;99997.20;88066;1279;94493;-74
2022/02/15 05:37:38;;;;;;;40.80;24.90;;;;;;;0.19;80.44;99999.20;88037;1278;81621;-65
2022/02/15 05:39:43;;;;;;;41.90;25.70;;;;;;;0.18;80.37;100004.62;88031;1279;84682;-65
2022/02/15 05:41:49;;;;;;;40.90;24.90;;;;;;;0.16;80.27;100002.12;88061;1279;98142;-74
2022/02/15 05:43:59;;;;;;;43.00;25.70;;;;;;;0.12;80.00;100005.29;88070;1279;87467;-74
2022/02/15 05:46:05;;;;;;;43.70;25.00;;;;;;;0.12;80.31;100011.18;88049;1278;94765;-72
2022/02/15 05:48:15;;;;;;;46.10;26.70;;;;;;;0.10;80.19;100005.47;88043;1278;79711;-72
2022/02/15 05:52:44;;;;;;;43.40;26.20;;;;;;;0.06;80.60;100008.33;88016;1277;98742;-64
2022/02/15 05:54:49;;;;;;;41.90;25.30;;;;;;;0.07;80.65;100005.19;88050;1279;88157;-64
2022/02/15 05:56:58;;;;;;;41.60;25.00;;;;;;;0.10;80.48;100005.53;88036;1278;94245;-65
2022/02/15 05:59:07;;;;;;;41.00;24.50;;;;;;;0.14;80.43;100002.67;88027;1279;81194;-65
2022/02/15 06:01:14;;;;;;;42.60;24.90;;;;;;;0.16;80.40;100003.39;88067;1278;83320;-65
2022/02/15 06:05:43;;;;;;;45.40;26.20;;;;;;;0.20;80.39;100011.00;88036;1278;89250;-66
2022/02/15 06:07:50;;;;;;;44.50;25.80;;;;;;;0.23;80.14;100011.27;88026;1281;95312;-74
2022/02/15 06:09:59;;;;;;;43.90;26.20;;;;;;;0.20;80.31;100009.18;88038;1278;77832;-73
2022/02/15 06:12:13;;;;;;;44.90;26.90;;;;;;;0.20;80.56;100007.77;88050;1278;80709;-71
2022/02/15 06:14:19;;;;;;;44.50;25.10;;;;;;;0.19;80.49;100007.01;88026;1279;98920;-73
2022/02/15 06:16:29;;;;;;;42.80;25.20;;;;;;;0.19;80.28;100011.06;88037;1278;87727;-65
2022/02/15 06:18:34;;;;;;;50.30;25.90;;;;;;;0.21;80.35;100008.91;88042;1278;94916;-65
2022/02/15 06:20:41;;;;;;;42.40;25.00;;;;;;;0.20;80.72;100006.39;88041;1278;79404;-66
2022/02/15 06:22:47;;;;;;;45.40;27.10;;;;;;;0.24;80.90;100011.13;88042;1277;80927;-65
2022/02/15 06:24:56;;;;;;;43.30;24.70;;;;;;;0.27;80.43;100007.70;88062;1277;100265;-66
2022/02/15 06:27:04;;;;;;;39.00;24.30;;;;;;;0.33;80.42;100010.50;88026;1278;87428;-73
2022/02/15 06:29:10;;;;;;;41.80;25.80;;;;;;;0.39;80.63;100007.14;87996;1281;94512;-73
2022/02/15 06:31:19;;;;;;;39.80;25.50;;;;;;;0.47;80.54;100009.44;88054;1277;80357;-68
2022/02/15 06:33:27;;;;;;;39.70;23.80;;;;;;;0.48;80.56;100003.15;88057;1277;80831;-66
2022/02/15 06:35:36;;;;;;;39.70;25.90;;;;;;;0.50;80.53;100004.75;88063;1277;99505;-65
2022/02/15 06:37:45;;;;;;;42.70;25.10;;;;;;;0.57;80.65;99999.87;88064;1278;87852;-65
2022/02/15 06:39:55;;;;;;;38.90;25.80;;;;;;;0.65;80.48;99994.63;88064;1277;95437;-66
2022/02/15 06:42:11;;;;;;;41.80;25.70;;;;;;;0.73;80.26;99992.13;88041;1278;77859;-71
2022/02/15 06:44:17;;;;;;;44.00;25.40;;;;;;;0.78;80.24;99996.45;88050;1277;83199;-72
2022/02/15 06:46:23;;;;;;;43.10;25.00;;;;;;;0.80;80.41;99997.98;88017;1278;99726;-72
2022/02/15 06:48:29;;;;;;;41.40;25.20;;;;;;;0.85;80.36;99999.87;88045;1278;88717;-73
2022/02/15 06:50:38;;;;;;;40.20;23.20;;;;;;;0.95;80.33;100000.90;88033;1278;95162;-73
2022/02/15 06:52:44;;;;;;;41.70;24.80;;;;;;;1.13;80.25;100001.14;88057;1277;80460;-72
2022/02/15 06:54:53;;;;;;;43.00;25.20;;;;;;;1.26;79.98;100006.52;88074;1277;79566;-75
2022/02/15 06:57:00;;;;;;;41.90;24.30;;;;;;;1.49;80.13;100009.88;88054;1277;99051;-66
2022/02/15 06:59:06;;;;;;;39.70;23.90;;;;;;;1.72;79.90;100010.05;88061;1277;88358;-66
2022/02/15 07:01:15;;;;;;;40.60;24.70;;;;;;;1.84;79.48;100007.77;88068;1278;95510;-67
2022/02/15 07:03:21;;;;;;;42.40;25.00;;;;;;;1.89;79.20;100015.25;88049;1277;77331;-78
2022/02/15 07:05:26;;;;;;;44.80;25.80;;;;;;;2.01;79.02;100018.91;88065;1277;82524;-77
2022/02/15 07:07:34;;;;;;;41.20;25.80;;;;;;;2.15;78.95;100016.30;88069;1278;98226;-65
2022/02/15 07:09:43;;;;;;;104.50;56.30;;;;;;;2.61;79.55;100016.39;88044;1278;89357;-65
2022/02/15 07:11:49;;;;;;;41.90;26.60;;;;;;;3.59;79.65;100011.09;88006;1277;96070;-66
2022/02/15 07:13:57;;;;;;;40.00;24.10;;;;;;;4.53;78.23;100008.13;88021;1277;79120;-65
2022/02/15 07:16:07;;;;;;;38.20;24.80;;;;;;;5.49;78.03;99998.83;88041;1277;82088;-65
2022/02/15 07:18:16;;;;;;;36.50;23.90;;;;;;;6.26;76.22;99997.91;88063;1278;99312;-66
2022/02/15 07:20:22;;;;;;;39.60;24.10;;;;;;;6.66;74.69;99994.14;88046;1278;87690;-67
2022/02/15 07:22:32;;;;;;;37.60;22.90;;;;;;;7.24;74.39;99989.43;88044;1277;94504;-76
2022/02/15 07:24:39;;;;;;;37.90;23.90;;;;;;;7.55;72.17;99986.66;88057;1277;78102;-77
2022/02/15 07:26:46;;;;;;;35.70;24.00;;;;;;;7.61;71.63;99991.69;88063;1278;83278;-79
2022/02/15 07:28:54;;;;;;;35.40;24.50;;;;;;;7.93;71.12;99990.95;88039;1275;99535;-79
2022/02/15 07:31:00;;;;;;;36.30;23.70;;;;;;;8.36;69.89;99989.77;88045;1278;89152;-63
2022/02/15 07:33:10;;;;;;;34.50;23.40;;;;;;;8.58;68.99;99988.52;88044;1277;94175;-77
2022/02/15 07:35:16;;;;;;;36.10;23.40;;;;;;;8.74;67.91;99986.49;88032;1278;78060;-64
2022/02/15 07:37:28;;;;;;;35.90;24.10;;;;;;;8.79;66.70;99987.79;88055;1278;80903;-75
2022/02/15 07:39:37;;;;;;;35.40;23.40;;;;;;;9.17;67.47;99980.95;88054;1278;98078;-75
2022/02/15 07:41:50;;;;;;;34.80;24.20;;;;;;;9.79;65.28;99983.48;88018;1281;87593;-74
2022/02/15 07:43:56;;;;;;;33.20;23.80;;;;;;;10.09;64.81;99986.84;88052;1278;92667;-74
2022/02/15 07:46:02;;;;;;;33.30;23.00;;;;;;;10.67;63.44;99988.97;88016;1278;81117;-75
2022/02/15 07:48:09;;;;;;;32.00;23.10;;;;;;;11.20;63.87;99993.20;88098;1277;81145;-66
2022/02/15 07:50:24;;;;;;;30.70;21.20;;;;;;;11.71;63.04;99992.38;88032;1277;99129;-63
2022/02/15 07:52:33;;;;;;;29.40;22.70;;;;;;;12.17;62.33;99983.98;88026;1280;89047;-77
2022/02/15 07:54:42;;;;;;;27.40;21.80;;;;;;;12.57;61.43;99987.73;88053;1277;93653;-76
2022/02/15 07:56:48;;;;;;;29.80;22.40;;;;;;;12.84;60.34;99982.48;87991;1277;80292;-77
2022/02/15 07:58:55;;;;;;;30.10;23.40;;;;;;;13.18;59.08;99982.45;88049;1277;81848;-79
2022/02/15 08:01:04;;;;;;;27.40;21.40;;;;;;;13.43;58.86;99982.46;88010;1281;99289;-74
2022/02/15 08:03:13;;;;;;;27.40;22.00;;;;;;;13.77;57.61;99980.52;88070;1277;87251;-74
2022/02/15 08:05:23;;;;;;;27.40;22.50;;;;;;;14.27;57.04;99983.84;88053;1277;94727;-67
2022/02/15 08:07:33;;;;;;;28.10;21.70;;;;;;;14.55;56.28;99985.92;88027;1278;79094;-72
2022/02/15 08:09:41;;;;;;;28.20;23.10;;;;;;;14.49;53.98;99988.41;88028;1279;82576;-70
2022/02/15 08:11:55;;;;;;;29.30;23.60;;;;;;;14.73;54.85;99989.08;88052;1277;98978;-64
2022/02/15 08:14:03;;;;;;;35.10;29.40;;;;;;;14.82;53.19;99991.27;88067;1277;87801;-65
2022/02/15 08:16:13;;;;;;;28.60;21.40;;;;;;;14.97;53.10;99987.78;88025;1277;92377;-65
2022/02/15 08:18:20;;;;;;;27.80;22.20;;;;;;;15.11;52.94;99988.73;87979;1281;79592;-75
2022/02/15 08:20:26;;;;;;;29.20;22.20;;;;;;;15.34;51.76;99989.40;88062;1277;79863;-75
2022/02/15 08:22:36;;;;;;;29.10;22.60;;;;;;;15.43;50.04;99988.08;88066;1278;98521;-65
2022/02/15 08:24:42;;;;;;;38.20;31.20;;;;;;;15.40;49.32;99983.92;87977;1281;88944;-64
2022/02/15 08:26:52;;;;;;;37.00;29.00;;;;;;;15.50;49.53;99984.89;88040;1277;95261;-76
2022/02/15 08:29:00;;;;;;;29.30;24.50;;;;;;;15.77;50.38;99983.93;88038;1277;78638;-75
2022/02/15 08:31:06;;;;;;;30.80;25.10;;;;;;;15.90;48.52;99987.16;88022;1281;80072;-74
2022/02/15 08:33:14;;;;;;;26.60;22.30;;;;;;;15.32;48.18;99991.02;88039;1278;99226;-64
2022/02/15 08:35:21;;;;;;;28.80;23.00;;;;;;;14.08;47.65;99991.33;88068;1277;89041;-64
2022/02/15 08:37:35;;;;;;;30.50;22.30;;;;;;;12.94;48.54;99993.94;87971;1280;95280;-75
2022/02/15 08:39:39;;;;;;;;;;;;;;;11.92;49.42;99996.05;88057;1278;77925;-74
2022/02/15 08:41:49;;;;;;;27.50;22.40;;;;;;;11.03;50.37;99999.21;88043;1277;80902;-65
2022/02/15 08:43:54;;;;;;;28.10;21.70;;;;;;;10.55;50.95;99998.48;88044;1277;98994;-62
2022/02/15 08:46:01;;;;;;;29.00;21.90;;;;;;;10.17;52.04;99997.88;88090;1278;87810;-65
2022/02/15 08:48:12;;;;;;;28.60;22.60;;;;;;;10.03;52.77;100000.88;88036;1277;95233;-75
2022/02/15 08:50:21;;;;;;;27.10;22.50;;;;;;;9.84;52.59;99993.75;88027;1278;78476;-76
2022/02/15 08:52:30;;;;;;;26.20;22.30;;;;;;;9.59;52.83;99994.08;88080;1278;82150;-64
2022/02/15 08:54:38;;;;;;;29.90;21.90;;;;;;;9.36;53.19;99992.29;88028;1278;99711;-67
2022/02/15 08:56:48;;;;;;;27.50;21.10;;;;;;;9.08;53.28;99990.31;88022;1277;88072;-65
2022/02/15 08:58:58;;;;;;;31.20;22.40;;;;;;;8.67;54.09;99993.36;88060;1277;93923;-64
2022/02/15 09:01:04;;;;;;;31.00;22.50;;;;;;;8.60;54.48;99999.73;88051;1277;78139;-75
2022/02/15 09:03:11;;;;;;;25.70;21.30;;;;;;;8.51;55.04;99996.84;88027;1277;82857;-65
2022/02/15 09:05:21;;;;;;;31.10;22.80;;;;;;;8.38;55.15;100001.73;88067;1277;98249;-65
2022/02/15 09:07:28;;;;;;;30.90;21.50;;;;;;;8.28;55.46;100004.27;87958;1281;89530;-76
2022/02/15 09:09:37;;;;;;;29.90;22.10;;;;;;;8.26;55.78;99997.89;88054;1277;94994;-76
2022/02/15 09:11:47;;;;;;;31.50;21.30;;;;;;;8.08;55.84;99999.14;88054;1277;81206;-67
2022/02/15 09:13:57;;;;;;;29.90;21.70;;;;;;;7.92;56.36;100005.48;88037;1277;82790;-66
2022/02/15 09:16:03;;;;;;;29.50;21.50;;;;;;;7.87;56.99;100007.23;87991;1281;100357;-65
2022/02/15 09:18:09;;;;;;;29.20;21.00;;;;;;;7.92;57.38;100008.60;87961;1281;87923;-63
2022/02/15 09:20:18;;;;;;;29.70;21.50;;;;;;;7.98;57.63;100021.52;88054;1277;95489;-64
2022/02/15 09:22:28;;;;;;;29.70;21.80;;;;;;;8.08;57.75;100024.82;88093;1277;79050;-77
2022/02/15 09:24:37;;;;;;;28.10;21.30;;;;;;;8.45;58.06;100024.61;88011;1279;79829;-75
2022/02/15 09:26:46;;;;;;;30.70;21.30;;;;;;;9.01;57.73;100031.21;88041;1277;100242;-64
2022/02/15 09:29:00;;;;;;;29.60;21.60;;;;;;;9.10;57.23;100031.57;88093;1277;88248;-65
2022/02/15 09:31:08;;;;;;;;;;;;;;;9.06;56.96;100030.15;88082;1277;94265;-66
2022/02/15 09:33:14;;;;;;;27.90;21.70;;;;;;;8.95;57.03;100033.12;88080;1278;79766;-76
2022/02/15 09:35:24;;;;;;;29.10;22.00;;;;;;;9.12;56.95;100034.21;88062;1277;81431;-76
2022/02/15 09:37:30;;;;;;;31.20;22.10;;;;;;;9.07;57.17;100035.91;87974;1279;99160;-64
2022/02/15 09:39:36;;;;;;;29.50;22.10;;;;;;;9.04;57.23;100032.86;88034;1277;87440;-62
2022/02/15 09:41:44;;;;;;;29.50;22.00;;;;;;;9.02;57.11;100036.33;88046;1277;95200;-75
2022/02/15 09:43:52;;;;;;;30.00;20.90;;;;;;;8.96;57.11;100036.55;88036;1277;77899;-75
2022/02/15 09:45:59;;;;;;;30.10;21.70;;;;;;;8.90;57.46;100032.41;88083;1277;79153;-76
2022/02/15 09:48:08;;;;;;;30.00;22.20;;;;;;;8.91;57.49;100030.17;88058;1277;99294;-74
2022/02/15 09:50:17;;;;;;;32.50;22.30;;;;;;;8.77;57.39;100028.45;88032;1278;88159;-73
2022/02/15 09:52:25;;;;;;;31.90;21.90;;;;;;;8.73;57.48;100030.42;87956;1281;95061;-68
2022/02/15 09:54:46;;;;;;;31.90;21.90;;;;;;;8.61;57.70;100030.05;87993;1278;80253;-68
2022/02/15 09:56:56;;;;;;;28.20;21.00;;;;;;;8.43;57.78;100038.34;87988;1279;81923;-67
2022/02/15 09:59:06;;;;;;;30.70;21.70;;;;;;;8.23;58.09;100035.80;88051;1277;100401;-67
2022/02/15 10:01:17;;;;;;;32.40;22.80;;;;;;;8.10;58.11;100038.10;88013;1279;88722;-66